Time;durP1;ratioP1;P1;durP2;ratioP2;P2;SDS_P1;SDS_P2;PMS_P1;PMS_P2;Temp;Humidity;BMP_temperature;BMP_pressure;BME280_temperature;BME280_humidity;BME280_pressure;Samples;Min_cycle;Max_cycle;Signal;HPM_P1;HPM_P2
2022/06/23 00:02:17;;;;;;;2.58;2.33;;;17.60;81.70;;;;;;5027789;28;20032;-57
2022/06/23 00:04:47;;;;;;;2.45;2.28;;;17.50;81.80;;;;;;5032046;28;20493;-57
2022/06/23 00:07:26;;;;;;;2.65;2.45;;;17.60;81.90;;;;;;5029768;28;20034;-57
2022/06/23 00:10:12;;;;;;;2.50;2.30;;;17.60;82.10;;;;;;5031934;28;20486;-57
2022/06/23 00:12:40;;;;;;;2.40;2.20;;;17.60;82.20;;;;;;5032303;28;20047;-57
2022/06/23 00:15:06;;;;;;;2.30;2.20;;;17.60;82.30;;;;;;5032384;28;20060;-57
2022/06/23 00:17:39;;;;;;;2.72;2.50;;;17.60;82.60;;;;;;5031087;28;20061;-57
2022/06/23 00:20:15;;;;;;;2.70;2.50;;;17.60;82.80;;;;;;5034915;28;20516;-57
2022/06/23 00:22:44;;;;;;;3.40;2.60;;;17.60;83.00;;;;;;5028892;28;20385;-57
2022/06/23 00:25:26;;;;;;;2.55;2.33;;;17.50;83.20;;;;;;5031178;28;20062;-57
2022/06/23 00:27:52;;;;;;;2.50;2.30;;;17.60;83.50;;;;;;5030357;28;20030;-57
2022/06/23 00:30:35;;;;;;;3.08;2.70;;;17.60;83.70;;;;;;5026676;28;20037;-57
2022/06/23 00:33:36;;;;;;;2.70;2.50;;;17.60;84.00;;;;;;5027112;28;20060;-57
2022/06/23 00:36:13;;;;;;;2.97;2.67;;;17.60;84.50;;;;;;5019333;28;20500;-57
2022/06/23 00:38:39;;;;;;;3.03;2.70;;;17.50;84.50;;;;;;5032493;28;20123;-57
2022/06/23 00:41:13;;;;;;;2.80;2.60;;;17.60;84.90;;;;;;5034280;28;20032;-57
2022/06/23 00:43:48;;;;;;;3.40;2.78;;;17.60;85.20;;;;;;5031286;28;20026;-57
2022/06/23 00:46:28;;;;;;;2.85;2.50;;;17.60;85.50;;;;;;5030728;28;20212;-57
2022/06/23 00:49:00;;;;;;;3.03;2.80;;;17.60;85.80;;;;;;5033878;28;20072;-57
2022/06/23 00:51:39;;;;;;;3.08;2.78;;;17.60;85.80;;;;;;5030914;28;20120;-57
2022/06/23 00:54:15;;;;;;;3.00;2.80;;;17.60;86.30;;;;;;5022136;28;20030;-57
2022/06/23 00:56:52;;;;;;;2.92;2.70;;;17.60;86.00;;;;;;5018800;28;20033;-56
2022/06/23 00:59:41;;;;;;;3.63;2.85;;;17.60;86.10;;;;;;5030156;28;20033;-57
2022/06/23 01:02:42;;;;;;;3.30;3.00;;;17.60;86.80;;;;;;5024090;28;20029;-57
2022/06/23 01:05:32;;;;;;;2.80;2.60;;;17.60;87.00;;;;;;5029102;28;20549;-57
2022/06/23 01:08:19;;;;;;;2.83;2.63;;;17.60;86.70;;;;;;5025248;28;20033;-56
2022/06/23 01:11:18;;;;;;;3.30;3.00;;;17.50;86.80;;;;;;5024344;28;20045;-57
2022/06/23 01:13:48;;;;;;;3.33;3.03;;;17.50;87.20;;;;;;5022570;28;20034;-57
2022/06/23 01:16:21;;;;;;;3.97;3.15;;;17.50;86.90;;;;;;5028433;28;20038;-57
2022/06/23 01:19:26;;;;;;;2.90;2.70;;;17.50;87.10;;;;;;5031277;28;20494;-57
2022/06/23 01:21:58;;;;;;;2.85;2.65;;;17.50;87.60;;;;;;5031214;28;20047;-57
2022/06/23 01:24:33;;;;;;;3.28;2.97;;;17.40;87.40;;;;;;5030478;28;20052;-57
2022/06/23 01:27:22;;;;;;;3.45;3.15;;;17.40;87.80;;;;;;5029411;28;20040;-57
2022/06/23 01:30:13;;;;;;;3.03;2.72;;;17.50;88.40;;;;;;5023338;28;20049;-57
2022/06/23 01:32:45;;;;;;;3.58;3.15;;;17.50;88.10;;;;;;5028129;28;20064;-57
2022/06/23 01:35:31;;;;;;;3.78;3.45;;;17.50;88.20;;;;;;5018302;28;20524;-57
2022/06/23 01:38:28;;;;;;;3.63;3.33;;;17.50;88.10;;;;;;5028916;28;20083;-57
2022/06/23 01:41:05;;;;;;;3.65;3.33;;;17.40;88.00;;;;;;5019741;28;20034;-57
2022/06/23 01:43:47;;;;;;;4.03;3.00;;;17.40;88.70;;;;;;5028646;28;20036;-57
2022/06/23 01:46:23;;;;;;;3.90;3.50;;;17.40;88.60;;;;;;5030137;28;20034;-57
2022/06/23 01:48:58;;;;;;;3.42;3.10;;;17.40;88.80;;;;;;5020332;28;20026;-57
2022/06/23 01:51:54;;;;;;;3.38;2.88;;;17.40;88.40;;;;;;5017001;28;20073;-57
2022/06/23 01:54:19;;;;;;;3.30;3.00;;;17.50;88.80;;;;;;5027658;28;20087;-57
2022/06/23 01:56:51;;;;;;;3.28;2.97;;;17.50;88.50;;;;;;5032618;28;20029;-57
2022/06/23 01:59:31;;;;;;;3.03;2.83;;;17.50;88.80;;;;;;5027840;28;20497;-57
2022/06/23 02:02:27;;;;;;;3.20;2.90;;;17.50;88.50;;;;;;5030353;28;20036;-57
2022/06/23 02:05:14;;;;;;;3.50;3.20;;;17.50;88.40;;;;;;5024881;28;20481;-57
2022/06/23 02:07:39;;;;;;;3.97;3.53;;;17.50;88.30;;;;;;5028552;28;20109;-57
2022/06/23 02:10:44;;;;;;;3.80;3.40;;;17.50;88.00;;;;;;5028363;28;20566;-57
2022/06/23 02:13:40;;;;;;;3.55;3.25;;;17.50;87.60;;;;;;5015072;28;20022;-57
2022/06/23 02:16:35;;;;;;;3.63;3.20;;;17.50;87.70;;;;;;5020728;28;20042;-57
2022/06/23 02:19:15;;;;;;;3.47;3.17;;;17.50;87.80;;;;;;5017741;28;20108;-57
2022/06/23 02:21:59;;;;;;;3.10;2.80;;;17.50;87.60;;;;;;5024269;28;20120;-57
2022/06/23 02:24:31;;;;;;;3.10;2.80;;;17.50;87.60;;;;;;5020999;28;20397;-57
2022/06/23 02:27:29;;;;;;;4.30;3.10;;;17.50;88.00;;;;;;5026823;28;20021;-57
2022/06/23 02:30:17;;;;;;;3.08;2.78;;;17.50;88.00;;;;;;5031112;28;20049;-57
2022/06/23 02:33:13;;;;;;;3.00;2.80;;;17.50;87.50;;;;;;5026648;28;20030;-57
2022/06/23 02:35:48;;;;;;;3.00;2.80;;;17.50;87.50;;;;;;5031149;28;20038;-57
2022/06/23 02:38:24;;;;;;;3.90;3.03;;;17.50;87.40;;;;;;5027181;28;20381;-57
2022/06/23 02:41:30;;;;;;;3.20;2.90;;;17.50;87.30;;;;;;5031116;28;20043;-57
2022/06/23 02:43:59;;;;;;;2.97;2.70;;;17.50;87.80;;;;;;5017302;28;20069;-57
2022/06/23 02:46:58;;;;;;;4.38;2.60;;;17.50;87.90;;;;;;5027545;28;20101;-57
2022/06/23 02:49:38;;;;;;;3.33;3.00;;;17.50;88.20;;;;;;5029607;28;20045;-57
2022/06/23 02:52:23;;;;;;;2.95;2.65;;;17.50;87.80;;;;;;5027550;28;20088;-57
2022/06/23 02:55:06;;;;;;;3.65;3.10;;;17.60;88.00;;;;;;5026044;28;20494;-57
2022/06/23 02:57:40;;;;;;;3.88;3.25;;;17.60;88.10;;;;;;5019238;28;20025;-57
2022/06/23 03:00:41;;;;;;;3.17;2.88;;;17.50;88.20;;;;;;5027044;28;20025;-57
2022/06/23 03:03:30;;;;;;;3.50;3.00;;;17.60;88.20;;;;;;5029668;28;20083;-57
2022/06/23 03:05:58;;;;;;;3.95;3.05;;;17.60;88.90;;;;;;5019230;28;20279;-57
2022/06/23 03:08:30;;;;;;;3.20;2.90;;;17.60;88.90;;;;;;5021066;28;20017;-57
2022/06/23 03:11:51;;;;;;;3.50;3.20;;;17.60;89.00;;;;;;5032065;28;20025;-57
2022/06/23 03:14:33;;;;;;;3.33;3.03;;;17.60;89.20;;;;;;5028696;28;20033;-57
2022/06/23 03:17:13;;;;;;;4.47;3.78;;;17.60;89.30;;;;;;5027748;28;20030;-57
2022/06/23 03:20:08;;;;;;;3.85;3.30;;;17.50;89.40;;;;;;5028797;28;20033;-57
2022/06/23 03:22:49;;;;;;;4.00;3.30;;;17.50;89.90;;;;;;5027746;28;20042;-57
2022/06/23 03:25:19;;;;;;;3.50;3.20;;;17.50;90.00;;;;;;5015716;28;20063;-57
2022/06/23 03:28:17;;;;;;;3.30;3.00;;;17.50;90.00;;;;;;5024998;28;20056;-57
2022/06/23 03:30:58;;;;;;;3.25;2.95;;;17.50;90.20;;;;;;5018873;28;20033;-57
2022/06/23 03:33:35;;;;;;;3.28;2.97;;;17.50;90.40;;;;;;5030173;28;20029;-57
2022/06/23 03:36:13;;;;;;;3.20;2.90;;;17.50;90.60;;;;;;5033122;28;20025;-57
2022/06/23 03:41:59;;;;;;;3.67;3.35;;;17.50;90.80;;;;;;5024892;28;20177;-57
2022/06/23 03:44:53;;;;;;;3.20;2.90;;;17.50;90.70;;;;;;5024499;28;20036;-57
2022/06/23 03:47:27;;;;;;;3.10;2.90;;;17.40;91.00;;;;;;5026349;28;20033;-57
2022/06/23 03:50:02;;;;;;;4.07;3.17;;;17.40;91.10;;;;;;5034180;28;20108;-57
2022/06/23 03:52:46;;;;;;;3.20;2.80;;;17.40;91.10;;;;;;5021969;28;20100;-57
2022/06/23 03:55:38;;;;;;;3.05;2.70;;;17.40;91.30;;;;;;5021886;28;20091;-57
2022/06/23 03:58:29;;;;;;;2.92;2.70;;;17.40;91.40;;;;;;5030453;28;20123;-57
2022/06/23 04:01:11;;;;;;;3.10;2.78;;;17.40;91.60;;;;;;5025148;28;20037;-57
2022/06/23 04:03:36;;;;;;;;;;;17.40;91.70;;;;;;5034055;28;20049;-57
2022/06/23 04:06:12;;;;;;;2.83;2.60;;;17.30;92.00;;;;;;5030280;28;19952;-57
2022/06/23 04:09:07;;;;;;;3.17;2.88;;;17.40;91.70;;;;;;5029599;28;20029;-57
2022/06/23 04:12:04;;;;;;;4.00;2.80;;;17.40;91.70;;;;;;5024005;28;20056;-57
2022/06/23 04:15:00;;;;;;;3.35;3.00;;;17.40;91.70;;;;;;5018369;28;20080;-57
2022/06/23 04:17:25;;;;;;;2.88;2.60;;;17.40;91.60;;;;;;5032130;28;20040;-57
2022/06/23 04:19:59;;;;;;;3.20;2.90;;;17.40;91.60;;;;;;5029819;28;20025;-57
2022/06/23 04:23:00;;;;;;;3.50;3.20;;;17.50;91.70;;;;;;5027705;28;20066;-57
2022/06/23 04:25:41;;;;;;;3.03;2.72;;;17.40;91.80;;;;;;5026718;28;20551;-57
2022/06/23 04:28:25;;;;;;;3.83;3.17;;;17.50;91.80;;;;;;5029061;28;20030;-60
2022/06/23 04:30:53;;;;;;;2.85;2.63;;;17.50;91.80;;;;;;5025848;28;20021;-57
2022/06/23 04:33:22;;;;;;;2.97;2.63;;;17.50;91.70;;;;;;5031983;28;20496;-57
2022/06/23 04:35:58;;;;;;;3.30;2.92;;;17.50;91.70;;;;;;5027760;28;20075;-58
2022/06/23 04:38:45;;;;;;;3.38;3.08;;;17.60;91.70;;;;;;5031807;28;20033;-57
2022/06/23 04:41:19;;;;;;;3.20;2.90;;;17.60;91.70;;;;;;5021770;28;20452;-57
2022/06/23 04:43:56;;;;;;;3.55;3.03;;;17.70;91.80;;;;;;5032384;28;20034;-58
2022/06/23 04:46:48;;;;;;;3.30;2.78;;;17.70;91.70;;;;;;5025078;28;20052;-57
2022/06/23 04:49:22;;;;;;;2.95;2.75;;;17.80;91.60;;;;;;5029967;28;20029;-57
2022/06/23 04:52:02;;;;;;;2.80;2.50;;;17.80;91.60;;;;;;5034757;28;20071;-58
2022/06/23 04:55:02;;;;;;;2.88;2.63;;;17.90;91.50;;;;;;5030144;28;20025;-58
2022/06/23 04:57:43;;;;;;;2.90;2.70;;;18.00;91.40;;;;;;5029303;28;20048;-58
2022/06/23 05:00:28;;;;;;;2.95;2.75;;;18.00;91.30;;;;;;5026286;28;20041;-58
2022/06/23 05:03:04;;;;;;;2.80;2.60;;;18.10;91.20;;;;;;5031036;28;20392;-58
2022/06/23 05:05:34;;;;;;;4.05;2.83;;;18.20;91.30;;;;;;5023517;28;20068;-58
2022/06/23 05:08:03;;;;;;;3.72;3.03;;;18.50;91.90;;;;;;5026802;28;20021;-58
2022/06/23 05:10:28;;;;;;;2.50;2.30;;;18.90;92.20;;;;;;5025921;28;20513;-58
2022/06/23 05:13:08;;;;;;;2.28;2.13;;;19.40;91.40;;;;;;5023812;28;20064;-58
2022/06/23 05:15:41;;;;;;;2.70;2.50;;;19.90;90.30;;;;;;5021964;28;20104;-59
2022/06/23 05:18:30;;;;;;;2.33;2.13;;;20.30;87.60;;;;;;5028859;28;20108;-58
2022/06/23 05:21:00;;;;;;;2.45;2.25;;;20.50;85.40;;;;;;5025622;28;20029;-58
2022/06/23 05:23:39;;;;;;;2.80;2.60;;;20.60;84.40;;;;;;5026002;28;20037;-58
2022/06/23 05:26:12;;;;;;;2.15;2.05;;;20.50;83.40;;;;;;5023851;28;20036;-58
2022/06/23 05:28:41;;;;;;;2.40;2.20;;;20.40;83.40;;;;;;5023649;28;20052;-58
2022/06/23 05:31:13;;;;;;;2.40;2.20;;;20.30;83.10;;;;;;5025636;28;20037;-58
2022/06/23 05:33:46;;;;;;;2.80;2.47;;;20.10;83.30;;;;;;5021931;28;20022;-58
2022/06/23 05:36:24;;;;;;;3.35;2.28;;;20.00;83.60;;;;;;5026669;28;20385;-58
2022/06/23 05:39:11;;;;;;;3.67;2.53;;;19.90;83.70;;;;;;5029170;28;20034;-58
2022/06/23 05:41:47;;;;;;;2.90;2.67;;;19.70;83.80;;;;;;5030540;28;20029;-58
2022/06/23 05:44:32;;;;;;;2.75;2.55;;;19.60;84.10;;;;;;5033014;28;20034;-58
2022/06/23 05:47:00;;;;;;;2.50;2.30;;;19.50;84.20;;;;;;5020961;28;20021;-58
2022/06/23 05:49:34;;;;;;;2.42;2.22;;;19.40;84.60;;;;;;5009831;28;20050;-58
2022/06/23 05:52:15;;;;;;;3.20;2.40;;;19.30;84.90;;;;;;5011936;28;20041;-58
2022/06/23 05:55:09;;;;;;;2.65;2.40;;;19.30;84.70;;;;;;5012190;28;20697;-58
2022/06/23 05:58:17;;;;;;;2.50;2.30;;;19.20;85.10;;;;;;5012930;28;20045;-58
2022/06/23 06:01:21;;;;;;;2.60;2.40;;;19.20;85.30;;;;;;5019125;28;20046;-58
2022/06/23 06:04:04;;;;;;;2.85;2.60;;;19.20;85.10;;;;;;5017500;28;20413;-58
2022/06/23 06:06:31;;;;;;;2.60;2.40;;;19.20;85.20;;;;;;5014542;28;20028;-58
2022/06/23 06:11:49;;;;;;;2.38;2.17;;;19.30;85.30;;;;;;5018057;28;20033;-58
2022/06/23 06:14:18;;;;;;;2.60;2.40;;;19.20;84.90;;;;;;5024423;28;20024;-58
2022/06/23 06:16:43;;;;;;;2.22;2.13;;;19.30;84.90;;;;;;5012948;28;20029;-58
2022/06/23 06:19:15;;;;;;;2.55;2.35;;;19.20;84.60;;;;;;5006517;28;20033;-58
2022/06/23 06:21:41;;;;;;;2.33;2.13;;;19.20;84.80;;;;;;5003684;28;20117;-57
2022/06/23 06:24:17;;;;;;;2.53;2.33;;;19.20;85.20;;;;;;5006432;28;21275;-58
2022/06/23 06:26:47;;;;;;;2.42;2.22;;;19.20;84.90;;;;;;5011210;28;20022;-58
2022/06/23 06:29:31;;;;;;;2.50;2.30;;;19.20;84.90;;;;;;5010821;28;20104;-58
2022/06/23 06:32:12;;;;;;;2.40;2.20;;;19.10;85.20;;;;;;5014428;28;20029;-58
2022/06/23 06:34:56;;;;;;;2.35;2.17;;;19.10;85.20;;;;;;5006218;28;20057;-58
2022/06/23 06:37:29;;;;;;;2.60;2.40;;;19.10;85.40;;;;;;5016993;28;20034;-58
2022/06/23 06:39:58;;;;;;;2.28;2.17;;;19.00;85.20;;;;;;5007971;28;20064;-58
2022/06/23 06:42:32;;;;;;;2.70;2.50;;;19.00;85.30;;;;;;5006631;28;20045;-58
2022/06/23 06:45:01;;;;;;;2.25;2.05;;;19.00;85.30;;;;;;5019535;28;20080;-58
2022/06/23 06:47:30;;;;;;;2.72;2.40;;;18.90;85.50;;;;;;5009829;28;20029;-58
2022/06/23 06:50:02;;;;;;;2.30;2.20;;;18.90;85.80;;;;;;5014936;28;20113;-58
2022/06/23 06:52:29;;;;;;;2.10;2.00;;;18.90;85.90;;;;;;5010180;28;20053;-58
2022/06/23 06:55:07;;;;;;;2.58;2.38;;;18.90;85.90;;;;;;5023991;28;20088;-58
2022/06/23 06:57:41;;;;;;;2.60;2.40;;;18.80;86.10;;;;;;5021134;28;20021;-57
2022/06/23 07:00:14;;;;;;;2.58;2.38;;;18.80;86.10;;;;;;5014597;28;20393;-58
2022/06/23 07:02:40;;;;;;;2.47;2.30;;;18.80;85.80;;;;;;5016321;28;20030;-58
2022/06/23 07:05:35;;;;;;;1.90;1.80;;;18.80;85.80;;;;;;5016279;28;20090;-58
2022/06/23 07:08:40;;;;;;;2.40;2.20;;;18.70;85.50;;;;;;5012769;28;20029;-58
2022/06/23 07:11:34;;;;;;;3.85;2.50;;;18.70;85.70;;;;;;5015949;28;20029;-57
2022/06/23 07:14:12;;;;;;;2.15;1.88;;;18.70;86.80;;;;;;5012553;28;20114;-58
2022/06/23 07:16:42;;;;;;;2.95;2.15;;;18.70;86.50;;;;;;5011577;28;20022;-57
2022/06/23 07:19:11;;;;;;;1.75;1.65;;;18.80;86.20;;;;;;5012383;28;20076;-58
2022/06/23 07:22:02;;;;;;;2.08;1.98;;;18.80;86.40;;;;;;5009509;28;20064;-59
2022/06/23 07:24:50;;;;;;;2.10;2.00;;;18.80;86.10;;;;;;5012001;28;20116;-59
2022/06/23 07:27:22;;;;;;;1.90;1.80;;;18.80;85.30;;;;;;5012422;28;20026;-58
2022/06/23 07:29:59;;;;;;;1.80;1.70;;;18.80;85.80;;;;;;5012680;28;20053;-57
2022/06/23 07:32:28;;;;;;;2.00;1.90;;;18.90;85.10;;;;;;5010518;28;20149;-58
2022/06/23 07:34:59;;;;;;;2.20;2.00;;;18.90;85.40;;;;;;5016509;28;20032;-58
2022/06/23 07:37:31;;;;;;;2.28;2.10;;;18.90;85.60;;;;;;5009483;28;20655;-58
2022/06/23 07:40:02;;;;;;;2.70;2.50;;;18.90;85.90;;;;;;5013547;28;20435;-58
2022/06/23 07:42:55;;;;;;;3.63;2.30;;;18.90;86.00;;;;;;5010029;28;20025;-58
2022/06/23 07:45:53;;;;;;;2.03;1.92;;;19.00;85.70;;;;;;5012345;28;20034;-58
2022/06/23 07:48:19;;;;;;;2.42;2.22;;;19.00;84.70;;;;;;5004862;28;20041;-58
2022/06/23 07:50:45;;;;;;;2.22;2.10;;;19.10;85.20;;;;;;5011697;28;20047;-58
2022/06/23 07:53:18;;;;;;;2.70;2.50;;;19.10;85.00;;;;;;5017976;28;20034;-58
2022/06/23 07:55:45;;;;;;;2.40;2.22;;;19.20;85.20;;;;;;5013407;28;20041;-58
2022/06/23 07:58:14;;;;;;;2.70;2.50;;;19.20;85.30;;;;;;5005656;28;20034;-56
2022/06/23 08:00:42;;;;;;;2.80;2.60;;;19.30;85.70;;;;;;5006740;28;20041;-59
2022/06/23 08:03:44;;;;;;;3.10;2.67;;;19.30;85.40;;;;;;5011086;28;20032;-59
2022/06/23 08:06:14;;;;;;;2.83;2.60;;;19.40;85.30;;;;;;5003436;28;20056;-59
2022/06/23 08:08:43;;;;;;;2.30;2.20;;;19.40;85.50;;;;;;5011669;28;20117;-59
2022/06/23 08:14:05;;;;;;;2.70;2.50;;;19.50;85.80;;;;;;5004353;28;20036;-59
2022/06/23 08:16:50;;;;;;;2.35;2.22;;;19.50;85.20;;;;;;5000409;28;20030;-57
2022/06/23 08:19:29;;;;;;;2.80;2.60;;;19.50;85.00;;;;;;4996857;28;20048;-58
2022/06/23 08:22:04;;;;;;;2.60;2.40;;;19.60;84.80;;;;;;4999604;28;20034;-58
2022/06/23 08:24:32;;;;;;;3.72;3.13;;;19.60;84.70;;;;;;5006218;28;20125;-58
2022/06/23 08:27:09;;;;;;;3.63;3.00;;;19.60;84.40;;;;;;5008791;28;20041;-57
2022/06/23 08:30:06;;;;;;;3.75;2.67;;;19.70;84.30;;;;;;5001290;28;20030;-58
2022/06/23 08:32:34;;;;;;;3.10;2.80;;;19.70;84.00;;;;;;5009250;28;20034;-58
2022/06/23 08:35:24;;;;;;;2.60;2.40;;;19.70;83.90;;;;;;5012842;28;20041;-58
2022/06/23 08:38:01;;;;;;;2.67;2.47;;;19.70;83.40;;;;;;5006856;28;20029;-58
2022/06/23 08:40:45;;;;;;;2.90;2.70;;;19.70;83.50;;;;;;5008476;28;20022;-59
2022/06/23 08:43:42;;;;;;;2.78;2.58;;;19.70;83.20;;;;;;5003559;28;20034;-58
2022/06/23 08:46:17;;;;;;;2.47;2.28;;;19.70;82.80;;;;;;5000879;28;20444;-59
2022/06/23 08:49:03;;;;;;;2.55;2.35;;;19.60;82.70;;;;;;4995728;28;20543;-57
2022/06/23 08:52:01;;;;;;;2.03;1.92;;;19.60;82.80;;;;;;4993234;28;20113;-58
2022/06/23 08:54:53;;;;;;;2.75;2.55;;;19.50;82.70;;;;;;4998387;28;20060;-58
2022/06/23 08:57:32;;;;;;;2.85;2.63;;;19.50;83.10;;;;;;5002199;28;20033;-58
2022/06/23 09:00:17;;;;;;;2.63;2.40;;;19.50;83.50;;;;;;5001472;28;20037;-58
2022/06/23 09:02:56;;;;;;;2.65;2.45;;;19.50;83.20;;;;;;4990128;28;20026;-57
2022/06/23 09:05:28;;;;;;;2.97;2.40;;;19.60;83.30;;;;;;4994498;28;20116;-58
2022/06/23 09:08:18;;;;;;;2.67;2.47;;;19.60;83.20;;;;;;5012255;28;20140;-59
2022/06/23 09:11:14;;;;;;;2.45;2.25;;;19.70;83.00;;;;;;5002779;28;20034;-57
2022/06/23 09:13:58;;;;;;;2.30;2.20;;;19.70;82.90;;;;;;5011139;28;20025;-58
2022/06/23 09:16:24;;;;;;;2.45;2.30;;;19.70;82.80;;;;;;4996542;28;20117;-58
2022/06/23 09:18:50;;;;;;;2.50;2.30;;;19.80;82.70;;;;;;5003669;28;20521;-58
2022/06/23 09:21:28;;;;;;;2.72;2.40;;;19.80;82.50;;;;;;5004951;28;20025;-58
2022/06/23 09:24:21;;;;;;;2.22;2.10;;;19.90;82.50;;;;;;4999869;28;20417;-57
2022/06/23 09:27:32;;;;;;;2.50;2.30;;;19.90;81.70;;;;;;4998787;28;20052;-58
2022/06/23 09:30:17;;;;;;;2.10;2.00;;;20.00;81.30;;;;;;5005451;28;20057;-58
2022/06/23 09:33:32;;;;;;;2.53;2.33;;;20.10;81.20;;;;;;5004136;28;20041;-58
2022/06/23 09:36:12;;;;;;;2.20;2.10;;;20.10;80.60;;;;;;5010953;28;20041;-58
2022/06/23 09:39:14;;;;;;;3.03;2.70;;;20.10;80.80;;;;;;5002277;28;20056;-58
2022/06/23 09:41:58;;;;;;;2.53;2.33;;;20.10;80.70;;;;;;5002203;28;20247;-58
2022/06/23 09:45:15;;;;;;;2.10;2.00;;;20.10;80.60;;;;;;5005584;28;20053;-58
2022/06/23 09:48:00;;;;;;;2.65;2.45;;;20.10;80.30;;;;;;4996024;28;20080;-58
2022/06/23 09:50:38;;;;;;;2.15;2.05;;;20.10;80.30;;;;;;4999377;28;20095;-57
2022/06/23 09:53:25;;;;;;;4.22;3.40;;;20.10;80.50;;;;;;4995924;28;20057;-58
2022/06/23 09:56:27;;;;;;;2.80;2.60;;;20.20;80.80;;;;;;5004310;28;20029;-58
2022/06/23 09:59:17;;;;;;;1.90;1.80;;;20.20;80.10;;;;;;5005291;28;21471;-58
2022/06/23 10:01:54;;;;;;;2.37;2.20;;;20.30;80.60;;;;;;5001001;28;20037;-57
2022/06/23 10:04:52;;;;;;;2.00;1.90;;;20.30;80.60;;;;;;5008446;28;20321;-58
2022/06/23 10:07:51;;;;;;;2.38;2.17;;;20.40;80.70;;;;;;4993142;28;20029;-58
2022/06/23 10:10:25;;;;;;;3.58;2.83;;;20.50;80.40;;;;;;4994830;28;20494;-59
2022/06/23 10:13:33;;;;;;;2.15;2.05;;;20.50;80.30;;;;;;4996873;28;20045;-58
2022/06/23 10:16:47;;;;;;;1.88;1.77;;;20.50;80.10;;;;;;5005757;28;20112;-58
2022/06/23 10:19:27;;;;;;;2.92;2.20;;;20.50;80.20;;;;;;5002259;28;20033;-59
2022/06/23 10:22:28;;;;;;;2.55;2.35;;;20.60;80.90;;;;;;4995113;28;20034;-59
2022/06/23 10:25:15;;;;;;;2.72;2.53;;;20.70;79.90;;;;;;5001032;28;20033;-59
2022/06/23 10:28:01;;;;;;;2.45;2.25;;;20.80;79.90;;;;;;4998745;28;20030;-59
2022/06/23 10:30:55;;;;;;;2.60;2.40;;;20.90;79.50;;;;;;5003014;28;20063;-58
2022/06/23 10:33:49;;;;;;;2.08;1.98;;;20.90;79.40;;;;;;5000839;28;20049;-59
2022/06/23 10:36:39;;;;;;;2.10;2.00;;;21.00;79.40;;;;;;4995742;28;20057;-58
2022/06/23 10:39:26;;;;;;;2.20;2.10;;;21.00;79.20;;;;;;4997263;28;20070;-57
2022/06/23 10:42:07;;;;;;;2.45;2.25;;;21.00;78.50;;;;;;5000276;28;20030;-59
2022/06/23 10:44:59;;;;;;;2.17;2.08;;;21.00;78.40;;;;;;5005137;28;20115;-59
2022/06/23 10:48:01;;;;;;;2.58;2.35;;;21.00;78.50;;;;;;5005146;28;20044;-59
2022/06/23 10:50:43;;;;;;;2.45;2.25;;;20.90;78.60;;;;;;5008698;28;20455;-58
2022/06/23 10:53:37;;;;;;;2.78;2.58;;;21.00;78.80;;;;;;4995229;28;20490;-58
2022/06/23 10:56:09;;;;;;;2.45;2.25;;;21.00;78.70;;;;;;5004940;28;20048;-59
2022/06/23 10:59:00;;;;;;;2.53;2.33;;;21.00;78.80;;;;;;5005793;28;20030;-58
2022/06/23 11:01:25;;;;;;;2.67;2.45;;;21.10;78.50;;;;;;4996630;28;20047;-58
2022/06/23 11:04:32;;;;;;;2.58;2.38;;;21.10;78.50;;;;;;5000581;28;20030;-58
2022/06/23 11:07:23;;;;;;;3.70;2.35;;;21.10;78.30;;;;;;4994142;28;21681;-57
2022/06/23 11:10:17;;;;;;;4.78;2.63;;;21.10;78.10;;;;;;5000237;28;20021;-57
2022/06/23 11:12:54;;;;;;;2.25;2.05;;;21.00;78.60;;;;;;5003987;28;20030;-58
2022/06/23 11:15:38;;;;;;;2.60;2.25;;;21.00;78.60;;;;;;5002592;28;20033;-58
2022/06/23 11:18:16;;;;;;;2.58;2.38;;;20.90;78.90;;;;;;4999942;28;20041;-59
2022/06/23 11:21:11;;;;;;;3.17;2.60;;;20.90;79.30;;;;;;4999431;28;20741;-58
2022/06/23 11:23:58;;;;;;;4.07;2.50;;;20.80;79.40;;;;;;4998685;28;20032;-58
2022/06/23 11:26:38;;;;;;;2.08;1.98;;;20.80;80.50;;;;;;4999187;28;20392;-58
2022/06/23 11:29:31;;;;;;;3.05;2.65;;;20.70;80.20;;;;;;5001021;28;20075;-59
2022/06/23 11:32:27;;;;;;;4.78;2.78;;;20.70;80.60;;;;;;5001798;28;20496;-58
2022/06/23 11:35:11;;;;;;;3.67;2.40;;;20.60;81.00;;;;;;5003921;28;20103;-58
2022/06/23 11:38:24;;;;;;;2.58;2.35;;;20.40;81.10;;;;;;5001380;28;20065;-58
2022/06/23 11:41:31;;;;;;;2.50;2.30;;;20.30;81.60;;;;;;5018348;28;20041;-58
2022/06/23 11:44:28;;;;;;;2.60;2.40;;;20.20;82.10;;;;;;5004195;28;21852;-57
2022/06/23 11:47:09;;;;;;;2.42;2.22;;;20.10;82.80;;;;;;5003959;28;20099;-58
2022/06/23 11:49:47;;;;;;;2.10;2.00;;;20.10;83.10;;;;;;5010474;28;20058;-58
2022/06/23 11:52:19;;;;;;;2.30;2.20;;;20.10;83.30;;;;;;5006140;28;20053;-58
2022/06/23 11:55:00;;;;;;;2.50;2.30;;;20.00;83.60;;;;;;5020210;28;20038;-58
2022/06/23 11:58:05;;;;;;;2.40;2.20;;;20.10;84.20;;;;;;5009761;28;20041;-58
2022/06/23 12:00:53;;;;;;;2.15;2.03;;;20.10;84.30;;;;;;5012194;28;20025;-58
2022/06/23 12:03:46;;;;;;;2.50;2.30;;;20.10;84.10;;;;;;5009758;28;20045;-58
2022/06/23 12:06:48;;;;;;;2.55;2.35;;;20.20;84.10;;;;;;5013202;28;20030;-58
2022/06/23 12:09:34;;;;;;;2.53;2.33;;;20.40;84.60;;;;;;5006513;28;20033;-58
2022/06/23 12:12:02;;;;;;;2.33;2.20;;;20.40;84.50;;;;;;5010241;28;20029;-58
2022/06/23 12:14:28;;;;;;;2.63;2.42;;;20.40;83.90;;;;;;5011138;28;20021;-58
2022/06/23 12:17:20;;;;;;;2.33;2.17;;;20.50;83.20;;;;;;5015697;28;20486;-58
2022/06/23 12:20:10;;;;;;;2.10;2.00;;;20.50;82.70;;;;;;5012016;28;20107;-58
2022/06/23 12:23:19;;;;;;;2.30;2.10;;;20.50;82.80;;;;;;5007303;28;20040;-58
2022/06/23 12:26:20;;;;;;;2.58;2.38;;;20.60;82.80;;;;;;5009212;28;20084;-57
2022/06/23 12:29:05;;;;;;;2.35;2.17;;;20.70;83.70;;;;;;5008410;28;20041;-58
2022/06/23 12:31:44;;;;;;;1.90;1.80;;;20.70;82.40;;;;;;5011227;28;20485;-58
2022/06/23 12:34:47;;;;;;;2.05;1.95;;;20.80;82.30;;;;;;5010304;28;20034;-58
2022/06/23 12:37:37;;;;;;;2.05;1.95;;;20.90;82.30;;;;;;5009767;28;20026;-58
2022/06/23 12:40:18;;;;;;;2.42;2.20;;;20.90;82.50;;;;;;5009597;28;20029;-57
2022/06/23 12:42:49;;;;;;;;;;;20.90;82.20;;;;;;5009363;28;20199;-59
2022/06/23 12:45:36;;;;;;;2.00;1.90;;;20.90;82.10;;;;;;5009165;28;19944;-58
2022/06/23 12:48:25;;;;;;;2.20;2.00;;;20.90;81.90;;;;;;5008617;28;20041;-58
2022/06/23 12:50:57;;;;;;;1.67;1.58;;;20.90;82.10;;;;;;5007887;28;20422;-57
2022/06/23 12:53:35;;;;;;;1.48;1.45;;;20.90;81.90;;;;;;4997012;28;20077;-58
2022/06/23 12:56:31;;;;;;;1.90;1.80;;;20.90;81.90;;;;;;5012333;28;20108;-58
2022/06/23 12:59:16;;;;;;;1.88;1.77;;;21.00;81.90;;;;;;5006673;28;20141;-58
2022/06/23 13:01:50;;;;;;;1.80;1.70;;;21.00;82.00;;;;;;5002262;28;20087;-59
2022/06/23 13:04:21;;;;;;;1.80;1.70;;;21.00;82.00;;;;;;5007342;28;20374;-57
2022/06/23 13:06:53;;;;;;;;;;;21.10;81.90;;;;;;5001895;28;20071;-58
2022/06/23 13:09:37;;;;;;;1.90;1.80;;;21.10;81.70;;;;;;5002231;28;20335;-58
2022/06/23 13:12:07;;;;;;;2.20;2.00;;;21.10;81.70;;;;;;5001485;28;20032;-58
2022/06/23 13:14:57;;;;;;;2.13;1.80;;;21.10;81.60;;;;;;5002599;28;20025;-58
2022/06/23 13:17:28;;;;;;;1.90;1.80;;;21.20;81.50;;;;;;5002695;28;20503;-58
2022/06/23 13:20:04;;;;;;;1.92;1.83;;;21.20;81.60;;;;;;5001102;28;20033;-58
2022/06/23 13:22:31;;;;;;;1.98;1.88;;;21.20;81.30;;;;;;5008797;28;20033;-58
2022/06/23 13:24:57;;;;;;;1.77;1.67;;;21.20;81.90;;;;;;5005671;28;20053;-57
2022/06/23 13:27:27;;;;;;;1.92;1.83;;;21.10;80.90;;;;;;5000682;28;20121;-57
2022/06/23 13:30:04;;;;;;;1.92;1.83;;;21.10;80.60;;;;;;5003678;28;20041;-57
2022/06/23 13:32:39;;;;;;;2.08;1.98;;;21.00;80.90;;;;;;4993997;28;20049;-57
2022/06/23 13:35:35;;;;;;;1.92;1.80;;;21.00;81.20;;;;;;5002512;28;20061;-58
2022/06/23 13:38:24;;;;;;;4.53;2.85;;;21.00;81.30;;;;;;5007211;28;20036;-58
2022/06/23 13:40:49;;;;;;;2.40;2.20;;;21.00;81.60;;;;;;5007539;28;20031;-58
2022/06/23 13:43:27;;;;;;;2.67;2.40;;;21.00;81.70;;;;;;5003259;28;20845;-58
2022/06/23 13:46:02;;;;;;;2.00;1.90;;;21.00;81.70;;;;;;5004880;28;20038;-57
2022/06/23 13:48:55;;;;;;;2.20;2.10;;;21.00;81.90;;;;;;5003008;28;20523;-56
2022/06/23 13:51:40;;;;;;;2.22;2.13;;;21.10;81.70;;;;;;5001659;28;20501;-57
2022/06/23 13:54:27;;;;;;;2.47;2.28;;;21.10;81.70;;;;;;4997501;28;20036;-58
2022/06/23 13:57:12;;;;;;;2.40;2.30;;;21.10;81.60;;;;;;4997776;28;20591;-58
2022/06/23 14:00:01;;;;;;;2.72;2.50;;;21.20;81.50;;;;;;5005489;28;20112;-58
2022/06/23 14:02:47;;;;;;;2.72;2.53;;;21.20;81.70;;;;;;4995408;28;20049;-58
2022/06/23 14:05:36;;;;;;;2.75;2.55;;;21.10;81.60;;;;;;5009788;28;20413;-57
2022/06/23 14:08:16;;;;;;;3.15;2.80;;;21.10;81.70;;;;;;5005138;28;20029;-58
2022/06/23 14:11:11;;;;;;;3.42;3.13;;;21.10;81.80;;;;;;5001639;28;20033;-56
2022/06/23 14:13:50;;;;;;;3.47;3.00;;;21.10;81.90;;;;;;5003286;28;20041;-57
2022/06/23 14:16:42;;;;;;;3.88;3.47;;;21.00;82.80;;;;;;5000884;28;20029;-57